sensor_id;sensor_type;location;lat;lon;timestamp;P1;durP1;ratioP1;P2;durP2;ratioP2
8652;SDS011;4364;52.426;9.424;2023-03-14T00:00:16;4.03;;;2.43;;
8652;SDS011;4364;52.426;9.424;2023-03-14T00:02:43;7.00;;;2.30;;
8652;SDS011;4364;52.426;9.424;2023-03-14T00:05:10;5.47;;;2.20;;
8652;SDS011;4364;52.426;9.424;2023-03-14T00:07:37;4.63;;;1.87;;
8652;SDS011;4364;52.426;9.424;2023-03-14T00:10:05;4.67;;;2.33;;
8652;SDS011;4364;52.426;9.424;2023-03-14T00:12:34;6.33;;;2.30;;
8652;SDS011;4364;52.426;9.424;2023-03-14T00:15:01;7.70;;;2.60;;
8652;SDS011;4364;52.426;9.424;2023-03-14T00:17:30;5.50;;;2.17;;
8652;SDS011;4364;52.426;9.424;2023-03-14T00:19:57;7.63;;;2.43;;
8652;SDS011;4364;52.426;9.424;2023-03-14T00:22:30;5.33;;;2.30;;
8652;SDS011;4364;52.426;9.424;2023-03-14T00:24:57;5.80;;;2.00;;
8652;SDS011;4364;52.426;9.424;2023-03-14T00:27:24;5.63;;;2.27;;
8652;SDS011;4364;52.426;9.424;2023-03-14T00:29:50;4.73;;;2.00;;
8652;SDS011;4364;52.426;9.424;2023-03-14T00:32:17;4.97;;;1.90;;
8652;SDS011;4364;52.426;9.424;2023-03-14T00:34:43;5.20;;;2.20;;
8652;SDS011;4364;52.426;9.424;2023-03-14T00:37:11;4.50;;;2.10;;
8652;SDS011;4364;52.426;9.424;2023-03-14T00:39:38;3.50;;;1.87;;
8652;SDS011;4364;52.426;9.424;2023-03-14T00:42:04;4.70;;;1.80;;
8652;SDS011;4364;52.426;9.424;2023-03-14T00:44:31;6.03;;;2.57;;
8652;SDS011;4364;52.426;9.424;2023-03-14T00:46:58;7.33;;;2.30;;
8652;SDS011;4364;52.426;9.424;2023-03-14T00:49:25;3.63;;;2.13;;
8652;SDS011;4364;52.426;9.424;2023-03-14T00:51:51;9.00;;;2.30;;
8652;SDS011;4364;52.426;9.424;2023-03-14T00:54:18;6.10;;;1.97;;
8652;SDS011;4364;52.426;9.424;2023-03-14T00:56:45;8.47;;;2.27;;
8652;SDS011;4364;52.426;9.424;2023-03-14T00:59:12;4.63;;;2.10;;
8652;SDS011;4364;52.426;9.424;2023-03-14T01:01:39;5.37;;;2.20;;
8652;SDS011;4364;52.426;9.424;2023-03-14T01:04:06;4.70;;;2.27;;
8652;SDS011;4364;52.426;9.424;2023-03-14T01:06:33;4.77;;;1.87;;
8652;SDS011;4364;52.426;9.424;2023-03-14T01:08:59;3.93;;;1.80;;
8652;SDS011;4364;52.426;9.424;2023-03-14T01:11:27;5.90;;;2.03;;
8652;SDS011;4364;52.426;9.424;2023-03-14T01:13:57;4.20;;;2.07;;
8652;SDS011;4364;52.426;9.424;2023-03-14T01:16:28;4.73;;;1.93;;
8652;SDS011;4364;52.426;9.424;2023-03-14T01:18:59;6.23;;;2.07;;
8652;SDS011;4364;52.426;9.424;2023-03-14T01:21:27;5.10;;;2.30;;
8652;SDS011;4364;52.426;9.424;2023-03-14T01:23:56;4.93;;;1.60;;
8652;SDS011;4364;52.426;9.424;2023-03-14T01:26:25;7.47;;;2.10;;
8652;SDS011;4364;52.426;9.424;2023-03-14T01:28:54;6.27;;;2.30;;
8652;SDS011;4364;52.426;9.424;2023-03-14T01:31:22;7.17;;;2.73;;
8652;SDS011;4364;52.426;9.424;2023-03-14T01:33:49;5.17;;;2.30;;
8652;SDS011;4364;52.426;9.424;2023-03-14T01:36:16;4.30;;;2.00;;
8652;SDS011;4364;52.426;9.424;2023-03-14T01:38:43;7.10;;;2.20;;
8652;SDS011;4364;52.426;9.424;2023-03-14T01:41:17;7.57;;;2.10;;
8652;SDS011;4364;52.426;9.424;2023-03-14T01:43:47;3.73;;;1.80;;
8652;SDS011;4364;52.426;9.424;2023-03-14T01:54:28;6.67;;;2.10;;
8652;SDS011;4364;52.426;9.424;2023-03-14T01:57:14;6.90;;;2.47;;
8652;SDS011;4364;52.426;9.424;2023-03-14T01:59:47;8.17;;;2.20;;
8652;SDS011;4364;52.426;9.424;2023-03-14T02:02:18;7.33;;;2.10;;
8652;SDS011;4364;52.426;9.424;2023-03-14T02:04:45;5.40;;;2.07;;
8652;SDS011;4364;52.426;9.424;2023-03-14T02:07:25;4.77;;;2.03;;
8652;SDS011;4364;52.426;9.424;2023-03-14T02:10:14;5.70;;;1.90;;
8652;SDS011;4364;52.426;9.424;2023-03-14T02:12:42;4.20;;;2.00;;
8652;SDS011;4364;52.426;9.424;2023-03-14T02:15:32;5.07;;;2.10;;
8652;SDS011;4364;52.426;9.424;2023-03-14T02:18:09;3.77;;;2.13;;
8652;SDS011;4364;52.426;9.424;2023-03-14T02:21:04;6.30;;;2.00;;
8652;SDS011;4364;52.426;9.424;2023-03-14T02:23:51;5.97;;;1.87;;
8652;SDS011;4364;52.426;9.424;2023-03-14T02:26:36;5.40;;;2.20;;
8652;SDS011;4364;52.426;9.424;2023-03-14T02:29:06;5.10;;;2.07;;
8652;SDS011;4364;52.426;9.424;2023-03-14T02:31:34;5.83;;;1.77;;
8652;SDS011;4364;52.426;9.424;2023-03-14T02:34:01;5.13;;;1.90;;
8652;SDS011;4364;52.426;9.424;2023-03-14T02:36:28;7.50;;;1.93;;
8652;SDS011;4364;52.426;9.424;2023-03-14T02:39:14;4.47;;;2.07;;
8652;SDS011;4364;52.426;9.424;2023-03-14T02:41:46;9.07;;;2.40;;
8652;SDS011;4364;52.426;9.424;2023-03-14T02:44:15;4.90;;;1.70;;
8652;SDS011;4364;52.426;9.424;2023-03-14T02:46:42;8.03;;;1.90;;
8652;SDS011;4364;52.426;9.424;2023-03-14T02:49:10;5.77;;;1.93;;
8652;SDS011;4364;52.426;9.424;2023-03-14T02:51:40;7.50;;;2.00;;
8652;SDS011;4364;52.426;9.424;2023-03-14T02:54:09;7.17;;;1.67;;
8652;SDS011;4364;52.426;9.424;2023-03-14T02:56:36;7.80;;;1.97;;
8652;SDS011;4364;52.426;9.424;2023-03-14T02:59:04;7.27;;;2.00;;
8652;SDS011;4364;52.426;9.424;2023-03-14T03:01:51;5.60;;;2.00;;
8652;SDS011;4364;52.426;9.424;2023-03-14T03:04:18;5.33;;;2.03;;
8652;SDS011;4364;52.426;9.424;2023-03-14T03:06:45;4.83;;;1.90;;
8652;SDS011;4364;52.426;9.424;2023-03-14T03:09:12;5.57;;;1.73;;
8652;SDS011;4364;52.426;9.424;2023-03-14T03:11:39;5.03;;;1.70;;
8652;SDS011;4364;52.426;9.424;2023-03-14T03:14:06;7.33;;;2.27;;
8652;SDS011;4364;52.426;9.424;2023-03-14T03:16:33;5.13;;;1.93;;
8652;SDS011;4364;52.426;9.424;2023-03-14T03:18:59;6.40;;;2.10;;
8652;SDS011;4364;52.426;9.424;2023-03-14T03:21:26;7.83;;;1.80;;
8652;SDS011;4364;52.426;9.424;2023-03-14T03:23:52;6.60;;;1.60;;
8652;SDS011;4364;52.426;9.424;2023-03-14T03:26:19;6.63;;;1.73;;
8652;SDS011;4364;52.426;9.424;2023-03-14T03:28:45;5.53;;;1.90;;
8652;SDS011;4364;52.426;9.424;2023-03-14T03:31:13;6.53;;;1.80;;
8652;SDS011;4364;52.426;9.424;2023-03-14T03:33:40;8.80;;;2.30;;
8652;SDS011;4364;52.426;9.424;2023-03-14T03:36:07;5.80;;;2.13;;
8652;SDS011;4364;52.426;9.424;2023-03-14T03:38:37;7.47;;;2.20;;
8652;SDS011;4364;52.426;9.424;2023-03-14T03:41:05;4.00;;;1.70;;
8652;SDS011;4364;52.426;9.424;2023-03-14T03:43:34;2.23;;;1.20;;
8652;SDS011;4364;52.426;9.424;2023-03-14T03:46:04;2.20;;;1.07;;
8652;SDS011;4364;52.426;9.424;2023-03-14T03:48:31;1.90;;;0.97;;
8652;SDS011;4364;52.426;9.424;2023-03-14T03:51:00;3.30;;;1.10;;
8652;SDS011;4364;52.426;9.424;2023-03-14T03:53:28;3.57;;;1.37;;
8652;SDS011;4364;52.426;9.424;2023-03-14T03:56:03;2.37;;;0.77;;
8652;SDS011;4364;52.426;9.424;2023-03-14T03:58:30;4.67;;;0.93;;
8652;SDS011;4364;52.426;9.424;2023-03-14T04:00:56;2.60;;;0.90;;
8652;SDS011;4364;52.426;9.424;2023-03-14T04:03:23;2.50;;;0.90;;
8652;SDS011;4364;52.426;9.424;2023-03-14T04:06:00;2.00;;;0.70;;
8652;SDS011;4364;52.426;9.424;2023-03-14T04:08:30;1.47;;;0.70;;
8652;SDS011;4364;52.426;9.424;2023-03-14T04:10:58;4.33;;;0.90;;
8652;SDS011;4364;52.426;9.424;2023-03-14T04:14:04;3.20;;;0.90;;
8652;SDS011;4364;52.426;9.424;2023-03-14T04:16:32;1.87;;;1.00;;
8652;SDS011;4364;52.426;9.424;2023-03-14T04:19:10;2.80;;;1.10;;
8652;SDS011;4364;52.426;9.424;2023-03-14T04:21:37;2.13;;;1.00;;
8652;SDS011;4364;52.426;9.424;2023-03-14T04:24:09;2.37;;;1.00;;
8652;SDS011;4364;52.426;9.424;2023-03-14T04:26:35;2.10;;;1.13;;
8652;SDS011;4364;52.426;9.424;2023-03-14T04:29:02;2.40;;;1.00;;
8652;SDS011;4364;52.426;9.424;2023-03-14T04:31:29;1.83;;;0.93;;
8652;SDS011;4364;52.426;9.424;2023-03-14T04:33:56;3.90;;;1.17;;
8652;SDS011;4364;52.426;9.424;2023-03-14T04:36:30;3.60;;;1.10;;
8652;SDS011;4364;52.426;9.424;2023-03-14T04:39:02;5.10;;;1.40;;
8652;SDS011;4364;52.426;9.424;2023-03-14T04:41:31;4.40;;;1.10;;
8652;SDS011;4364;52.426;9.424;2023-03-14T04:43:57;4.27;;;1.20;;
8652;SDS011;4364;52.426;9.424;2023-03-14T04:46:25;3.50;;;1.10;;
8652;SDS011;4364;52.426;9.424;2023-03-14T04:48:52;4.17;;;1.60;;
8652;SDS011;4364;52.426;9.424;2023-03-14T04:51:18;2.37;;;1.10;;
8652;SDS011;4364;52.426;9.424;2023-03-14T04:53:45;2.30;;;1.00;;
8652;SDS011;4364;52.426;9.424;2023-03-14T04:56:12;4.13;;;2.00;;
8652;SDS011;4364;52.426;9.424;2023-03-14T04:58:41;3.13;;;1.50;;
8652;SDS011;4364;52.426;9.424;2023-03-14T05:01:08;3.00;;;1.10;;
8652;SDS011;4364;52.426;9.424;2023-03-14T05:03:43;5.47;;;1.20;;
8652;SDS011;4364;52.426;9.424;2023-03-14T05:06:09;3.77;;;1.20;;
8652;SDS011;4364;52.426;9.424;2023-03-14T05:08:56;2.67;;;1.50;;
8652;SDS011;4364;52.426;9.424;2023-03-14T05:11:43;5.47;;;1.60;;
8652;SDS011;4364;52.426;9.424;2023-03-14T05:14:27;4.80;;;1.40;;
8652;SDS011;4364;52.426;9.424;2023-03-14T05:17:12;2.83;;;1.30;;
8652;SDS011;4364;52.426;9.424;2023-03-14T05:19:59;3.93;;;1.37;;
8652;SDS011;4364;52.426;9.424;2023-03-14T05:22:34;6.17;;;1.93;;
8652;SDS011;4364;52.426;9.424;2023-03-14T05:25:21;4.20;;;1.53;;
8652;SDS011;4364;52.426;9.424;2023-03-14T05:28:09;3.67;;;1.60;;
8652;SDS011;4364;52.426;9.424;2023-03-14T05:30:50;4.53;;;1.60;;
8652;SDS011;4364;52.426;9.424;2023-03-14T05:33:35;6.83;;;2.33;;
8652;SDS011;4364;52.426;9.424;2023-03-14T05:36:28;4.63;;;1.73;;
8652;SDS011;4364;52.426;9.424;2023-03-14T05:39:15;6.30;;;2.00;;
8652;SDS011;4364;52.426;9.424;2023-03-14T05:42:03;6.03;;;2.30;;
8652;SDS011;4364;52.426;9.424;2023-03-14T05:44:48;7.07;;;2.07;;
8652;SDS011;4364;52.426;9.424;2023-03-14T05:47:38;3.63;;;1.97;;
8652;SDS011;4364;52.426;9.424;2023-03-14T05:50:25;5.67;;;2.10;;
8652;SDS011;4364;52.426;9.424;2023-03-14T05:53:21;5.83;;;2.07;;
8652;SDS011;4364;52.426;9.424;2023-03-14T05:56:06;5.40;;;2.17;;
8652;SDS011;4364;52.426;9.424;2023-03-14T05:58:54;7.13;;;2.67;;
8652;SDS011;4364;52.426;9.424;2023-03-14T06:01:29;6.87;;;2.00;;
8652;SDS011;4364;52.426;9.424;2023-03-14T06:04:09;6.67;;;2.00;;
8652;SDS011;4364;52.426;9.424;2023-03-14T06:06:36;8.87;;;2.63;;
8652;SDS011;4364;52.426;9.424;2023-03-14T06:09:04;6.10;;;3.57;;
8652;SDS011;4364;52.426;9.424;2023-03-14T06:11:34;8.80;;;3.03;;
8652;SDS011;4364;52.426;9.424;2023-03-14T06:14:02;9.70;;;3.47;;
8652;SDS011;4364;52.426;9.424;2023-03-14T06:16:29;8.07;;;2.33;;
8652;SDS011;4364;52.426;9.424;2023-03-14T06:18:56;8.50;;;2.53;;
8652;SDS011;4364;52.426;9.424;2023-03-14T06:21:23;7.43;;;2.70;;
8652;SDS011;4364;52.426;9.424;2023-03-14T06:23:50;7.37;;;2.00;;
8652;SDS011;4364;52.426;9.424;2023-03-14T06:26:17;10.10;;;2.73;;
8652;SDS011;4364;52.426;9.424;2023-03-14T06:28:44;6.73;;;2.43;;
8652;SDS011;4364;52.426;9.424;2023-03-14T06:31:11;8.17;;;2.77;;
8652;SDS011;4364;52.426;9.424;2023-03-14T06:33:47;5.27;;;1.90;;
8652;SDS011;4364;52.426;9.424;2023-03-14T06:36:14;5.93;;;1.73;;
8652;SDS011;4364;52.426;9.424;2023-03-14T06:38:43;5.30;;;1.70;;
8652;SDS011;4364;52.426;9.424;2023-03-14T06:41:09;5.50;;;2.33;;
8652;SDS011;4364;52.426;9.424;2023-03-14T06:43:39;6.20;;;2.10;;
8652;SDS011;4364;52.426;9.424;2023-03-14T06:46:07;4.37;;;1.67;;
8652;SDS011;4364;52.426;9.424;2023-03-14T06:48:36;5.33;;;2.10;;
8652;SDS011;4364;52.426;9.424;2023-03-14T06:51:03;9.30;;;3.53;;
8652;SDS011;4364;52.426;9.424;2023-03-14T06:53:30;4.03;;;1.73;;
8652;SDS011;4364;52.426;9.424;2023-03-14T06:55:59;6.40;;;2.80;;
8652;SDS011;4364;52.426;9.424;2023-03-14T06:58:30;6.53;;;2.07;;
8652;SDS011;4364;52.426;9.424;2023-03-14T07:00:57;3.23;;;1.23;;
8652;SDS011;4364;52.426;9.424;2023-03-14T07:03:30;5.80;;;1.43;;
8652;SDS011;4364;52.426;9.424;2023-03-14T07:05:58;2.17;;;1.10;;
8652;SDS011;4364;52.426;9.424;2023-03-14T07:08:26;4.10;;;1.10;;
8652;SDS011;4364;52.426;9.424;2023-03-14T07:10:52;3.13;;;0.90;;
8652;SDS011;4364;52.426;9.424;2023-03-14T07:13:23;2.07;;;1.10;;
8652;SDS011;4364;52.426;9.424;2023-03-14T07:15:58;1.10;;;0.73;;
8652;SDS011;4364;52.426;9.424;2023-03-14T07:18:25;2.20;;;0.80;;
8652;SDS011;4364;52.426;9.424;2023-03-14T07:20:51;3.10;;;0.90;;
8652;SDS011;4364;52.426;9.424;2023-03-14T07:23:18;3.83;;;0.80;;
8652;SDS011;4364;52.426;9.424;2023-03-14T07:25:47;2.53;;;0.87;;
8652;SDS011;4364;52.426;9.424;2023-03-14T07:28:17;1.67;;;1.10;;
8652;SDS011;4364;52.426;9.424;2023-03-14T07:30:46;2.10;;;0.70;;
8652;SDS011;4364;52.426;9.424;2023-03-14T07:33:19;1.27;;;0.57;;
8652;SDS011;4364;52.426;9.424;2023-03-14T07:35:49;2.43;;;0.60;;
8652;SDS011;4364;52.426;9.424;2023-03-14T07:38:16;0.83;;;0.60;;
8652;SDS011;4364;52.426;9.424;2023-03-14T07:41:04;1.87;;;0.80;;
8652;SDS011;4364;52.426;9.424;2023-03-14T07:43:35;2.27;;;0.77;;
8652;SDS011;4364;52.426;9.424;2023-03-14T07:46:01;0.80;;;0.60;;
8652;SDS011;4364;52.426;9.424;2023-03-14T07:48:28;1.90;;;0.70;;
8652;SDS011;4364;52.426;9.424;2023-03-14T07:50:54;0.90;;;0.60;;
8652;SDS011;4364;52.426;9.424;2023-03-14T07:53:22;0.90;;;0.70;;
8652;SDS011;4364;52.426;9.424;2023-03-14T07:55:50;1.07;;;0.73;;
8652;SDS011;4364;52.426;9.424;2023-03-14T07:58:17;2.53;;;0.70;;
8652;SDS011;4364;52.426;9.424;2023-03-14T08:00:43;1.27;;;0.60;;
8652;SDS011;4364;52.426;9.424;2023-03-14T08:03:10;1.10;;;0.63;;
8652;SDS011;4364;52.426;9.424;2023-03-14T08:05:37;0.50;;;0.50;;
8652;SDS011;4364;52.426;9.424;2023-03-14T08:08:04;1.87;;;0.90;;
8652;SDS011;4364;52.426;9.424;2023-03-14T08:10:31;1.60;;;1.10;;
8652;SDS011;4364;52.426;9.424;2023-03-14T08:12:58;2.23;;;0.70;;
8652;SDS011;4364;52.426;9.424;2023-03-14T08:15:27;1.43;;;0.90;;
8652;SDS011;4364;52.426;9.424;2023-03-14T08:17:55;1.97;;;0.60;;
8652;SDS011;4364;52.426;9.424;2023-03-14T08:20:22;2.23;;;1.27;;
8652;SDS011;4364;52.426;9.424;2023-03-14T08:22:51;2.53;;;1.00;;
8652;SDS011;4364;52.426;9.424;2023-03-14T08:25:18;3.83;;;1.30;;
8652;SDS011;4364;52.426;9.424;2023-03-14T08:27:44;3.40;;;1.40;;
8652;SDS011;4364;52.426;9.424;2023-03-14T08:30:12;1.80;;;1.10;;
8652;SDS011;4364;52.426;9.424;2023-03-14T08:32:40;4.40;;;1.30;;
8652;SDS011;4364;52.426;9.424;2023-03-14T08:35:07;1.73;;;1.07;;
8652;SDS011;4364;52.426;9.424;2023-03-14T08:37:35;3.97;;;1.50;;
8652;SDS011;4364;52.426;9.424;2023-03-14T08:40:02;3.67;;;1.40;;
8652;SDS011;4364;52.426;9.424;2023-03-14T08:42:32;1.70;;;1.07;;
8652;SDS011;4364;52.426;9.424;2023-03-14T08:45:05;1.67;;;0.90;;
8652;SDS011;4364;52.426;9.424;2023-03-14T08:47:33;2.23;;;0.70;;
8652;SDS011;4364;52.426;9.424;2023-03-14T08:49:59;2.93;;;1.23;;
8652;SDS011;4364;52.426;9.424;2023-03-14T08:52:26;1.90;;;1.20;;
8652;SDS011;4364;52.426;9.424;2023-03-14T08:54:53;2.53;;;1.43;;
8652;SDS011;4364;52.426;9.424;2023-03-14T08:57:19;0.87;;;0.80;;
8652;SDS011;4364;52.426;9.424;2023-03-14T08:59:47;1.93;;;1.10;;
8652;SDS011;4364;52.426;9.424;2023-03-14T09:02:14;2.20;;;1.20;;
8652;SDS011;4364;52.426;9.424;2023-03-14T09:04:40;1.80;;;1.00;;
8652;SDS011;4364;52.426;9.424;2023-03-14T09:07:07;3.67;;;1.30;;
8652;SDS011;4364;52.426;9.424;2023-03-14T09:09:33;1.70;;;1.00;;
8652;SDS011;4364;52.426;9.424;2023-03-14T09:12:00;8.63;;;3.80;;
8652;SDS011;4364;52.426;9.424;2023-03-14T09:14:27;2.00;;;1.10;;
8652;SDS011;4364;52.426;9.424;2023-03-14T09:16:55;3.00;;;1.60;;
8652;SDS011;4364;52.426;9.424;2023-03-14T09:19:21;3.50;;;1.70;;
8652;SDS011;4364;52.426;9.424;2023-03-14T09:21:48;3.27;;;1.80;;
8652;SDS011;4364;52.426;9.424;2023-03-14T09:24:15;2.17;;;1.00;;
8652;SDS011;4364;52.426;9.424;2023-03-14T09:26:42;1.93;;;1.30;;
8652;SDS011;4364;52.426;9.424;2023-03-14T09:29:08;3.00;;;1.60;;
8652;SDS011;4364;52.426;9.424;2023-03-14T09:31:35;3.07;;;1.83;;
8652;SDS011;4364;52.426;9.424;2023-03-14T09:34:02;3.73;;;1.87;;
8652;SDS011;4364;52.426;9.424;2023-03-14T09:36:28;2.90;;;1.70;;
8652;SDS011;4364;52.426;9.424;2023-03-14T09:38:55;2.90;;;1.60;;
8652;SDS011;4364;52.426;9.424;2023-03-14T09:41:25;3.90;;;1.97;;
8652;SDS011;4364;52.426;9.424;2023-03-14T09:44:00;3.90;;;1.90;;
8652;SDS011;4364;52.426;9.424;2023-03-14T09:46:31;1.87;;;1.57;;
8652;SDS011;4364;52.426;9.424;2023-03-14T09:49:01;3.57;;;2.10;;
8652;SDS011;4364;52.426;9.424;2023-03-14T09:51:29;3.43;;;2.00;;
8652;SDS011;4364;52.426;9.424;2023-03-14T09:53:57;5.83;;;2.87;;
8652;SDS011;4364;52.426;9.424;2023-03-14T09:56:28;3.27;;;2.30;;
8652;SDS011;4364;52.426;9.424;2023-03-14T09:58:58;4.23;;;2.80;;
8652;SDS011;4364;52.426;9.424;2023-03-14T10:01:30;3.53;;;1.90;;
8652;SDS011;4364;52.426;9.424;2023-03-14T10:04:02;2.93;;;2.20;;
8652;SDS011;4364;52.426;9.424;2023-03-14T10:06:36;4.03;;;2.50;;
8652;SDS011;4364;52.426;9.424;2023-03-14T10:09:03;3.80;;;2.13;;
8652;SDS011;4364;52.426;9.424;2023-03-14T10:11:31;2.83;;;1.67;;
8652;SDS011;4364;52.426;9.424;2023-03-14T10:14:05;3.23;;;2.20;;
8652;SDS011;4364;52.426;9.424;2023-03-14T10:16:35;2.40;;;1.90;;
8652;SDS011;4364;52.426;9.424;2023-03-14T10:19:13;4.57;;;2.93;;
8652;SDS011;4364;52.426;9.424;2023-03-14T10:21:44;3.57;;;2.30;;
8652;SDS011;4364;52.426;9.424;2023-03-14T10:26:54;2.37;;;2.17;;
8652;SDS011;4364;52.426;9.424;2023-03-14T10:29:29;2.80;;;2.50;;
8652;SDS011;4364;52.426;9.424;2023-03-14T10:31:59;5.00;;;2.40;;
8652;SDS011;4364;52.426;9.424;2023-03-14T10:34:29;5.27;;;3.60;;
8652;SDS011;4364;52.426;9.424;2023-03-14T10:36:58;3.80;;;2.97;;
8652;SDS011;4364;52.426;9.424;2023-03-14T10:39:35;3.03;;;2.37;;
8652;SDS011;4364;52.426;9.424;2023-03-14T10:42:12;6.50;;;4.07;;
8652;SDS011;4364;52.426;9.424;2023-03-14T10:44:40;4.67;;;3.00;;
8652;SDS011;4364;52.426;9.424;2023-03-14T10:47:14;4.50;;;3.20;;
8652;SDS011;4364;52.426;9.424;2023-03-14T10:49:44;3.43;;;3.00;;
8652;SDS011;4364;52.426;9.424;2023-03-14T10:55:02;3.33;;;3.03;;
8652;SDS011;4364;52.426;9.424;2023-03-14T10:57:38;6.73;;;2.50;;
8652;SDS011;4364;52.426;9.424;2023-03-14T11:00:05;2.37;;;1.50;;
8652;SDS011;4364;52.426;9.424;2023-03-14T11:02:56;1.77;;;0.97;;
8652;SDS011;4364;52.426;9.424;2023-03-14T11:05:43;1.23;;;0.87;;
8652;SDS011;4364;52.426;9.424;2023-03-14T11:08:23;1.10;;;0.90;;
8652;SDS011;4364;52.426;9.424;2023-03-14T11:22:32;2.23;;;1.00;;
8652;SDS011;4364;52.426;9.424;2023-03-14T11:33:27;1.60;;;1.50;;
8652;SDS011;4364;52.426;9.424;2023-03-14T11:38:46;1.80;;;1.60;;
8652;SDS011;4364;52.426;9.424;2023-03-14T11:41:19;1.77;;;1.63;;
8652;SDS011;4364;52.426;9.424;2023-03-14T11:43:53;2.73;;;1.60;;
8652;SDS011;4364;52.426;9.424;2023-03-14T11:51:24;1.03;;;0.80;;
8652;SDS011;4364;52.426;9.424;2023-03-14T11:57:20;1.00;;;0.90;;
8652;SDS011;4364;52.426;9.424;2023-03-14T12:02:22;0.77;;;0.70;;
8652;SDS011;4364;52.426;9.424;2023-03-14T12:07:53;1.73;;;0.90;;
8652;SDS011;4364;52.426;9.424;2023-03-14T12:10:35;3.23;;;1.17;;
8652;SDS011;4364;52.426;9.424;2023-03-14T12:13:08;4.30;;;1.40;;
8652;SDS011;4364;52.426;9.424;2023-03-14T12:15:40;2.73;;;1.13;;
8652;SDS011;4364;52.426;9.424;2023-03-14T12:21:09;2.60;;;1.73;;
8652;SDS011;4364;52.426;9.424;2023-03-14T12:26:22;4.27;;;1.20;;
8652;SDS011;4364;52.426;9.424;2023-03-14T12:39:20;5.57;;;1.10;;
8652;SDS011;4364;52.426;9.424;2023-03-14T12:41:51;3.80;;;1.00;;
8652;SDS011;4364;52.426;9.424;2023-03-14T12:46:58;5.50;;;1.47;;
8652;SDS011;4364;52.426;9.424;2023-03-14T12:49:30;7.13;;;1.50;;
8652;SDS011;4364;52.426;9.424;2023-03-14T12:51:59;7.50;;;1.63;;
8652;SDS011;4364;52.426;9.424;2023-03-14T12:54:46;4.37;;;1.50;;
8652;SDS011;4364;52.426;9.424;2023-03-14T13:00:16;4.47;;;1.33;;
8652;SDS011;4364;52.426;9.424;2023-03-14T13:02:44;5.83;;;2.00;;
8652;SDS011;4364;52.426;9.424;2023-03-14T13:05:19;10.50;;;2.30;;
8652;SDS011;4364;52.426;9.424;2023-03-14T13:10:22;9.73;;;1.80;;
8652;SDS011;4364;52.426;9.424;2023-03-14T13:12:50;3.10;;;1.30;;
8652;SDS011;4364;52.426;9.424;2023-03-14T13:15:41;4.40;;;1.67;;
8652;SDS011;4364;52.426;9.424;2023-03-14T13:18:12;5.83;;;1.77;;
8652;SDS011;4364;52.426;9.424;2023-03-14T13:20:42;7.07;;;1.80;;
8652;SDS011;4364;52.426;9.424;2023-03-14T13:23:20;11.27;;;2.27;;
8652;SDS011;4364;52.426;9.424;2023-03-14T13:25:48;4.67;;;2.20;;
8652;SDS011;4364;52.426;9.424;2023-03-14T13:28:15;12.37;;;2.30;;
8652;SDS011;4364;52.426;9.424;2023-03-14T13:30:43;8.70;;;2.17;;
8652;SDS011;4364;52.426;9.424;2023-03-14T13:33:14;7.37;;;2.07;;
8652;SDS011;4364;52.426;9.424;2023-03-14T13:35:43;9.53;;;2.50;;
8652;SDS011;4364;52.426;9.424;2023-03-14T13:38:15;12.07;;;2.57;;
8652;SDS011;4364;52.426;9.424;2023-03-14T13:40:44;9.50;;;2.30;;
8652;SDS011;4364;52.426;9.424;2023-03-14T13:46:05;18.20;;;3.13;;
8652;SDS011;4364;52.426;9.424;2023-03-14T13:48:44;11.10;;;2.87;;
8652;SDS011;4364;52.426;9.424;2023-03-14T13:51:31;12.13;;;3.33;;
8652;SDS011;4364;52.426;9.424;2023-03-14T13:54:01;9.03;;;2.47;;
8652;SDS011;4364;52.426;9.424;2023-03-14T13:56:30;14.97;;;3.30;;
8652;SDS011;4364;52.426;9.424;2023-03-14T13:58:59;10.10;;;2.97;;
8652;SDS011;4364;52.426;9.424;2023-03-14T14:01:27;17.53;;;3.20;;
8652;SDS011;4364;52.426;9.424;2023-03-14T14:03:58;11.47;;;3.10;;
8652;SDS011;4364;52.426;9.424;2023-03-14T14:06:37;13.50;;;3.23;;
8652;SDS011;4364;52.426;9.424;2023-03-14T14:09:14;13.30;;;3.07;;
8652;SDS011;4364;52.426;9.424;2023-03-14T14:11:47;11.60;;;3.10;;
8652;SDS011;4364;52.426;9.424;2023-03-14T14:14:40;14.77;;;3.43;;
8652;SDS011;4364;52.426;9.424;2023-03-14T14:17:11;16.30;;;3.50;;
8652;SDS011;4364;52.426;9.424;2023-03-14T14:19:41;18.63;;;5.00;;
8652;SDS011;4364;52.426;9.424;2023-03-14T14:22:09;17.60;;;2.87;;
8652;SDS011;4364;52.426;9.424;2023-03-14T14:24:37;11.73;;;3.27;;
8652;SDS011;4364;52.426;9.424;2023-03-14T14:29:41;12.07;;;2.50;;
8652;SDS011;4364;52.426;9.424;2023-03-14T14:34:40;12.30;;;2.73;;
8652;SDS011;4364;52.426;9.424;2023-03-14T14:39:53;9.87;;;2.40;;
8652;SDS011;4364;52.426;9.424;2023-03-14T14:42:24;14.90;;;2.83;;
8652;SDS011;4364;52.426;9.424;2023-03-14T14:44:53;13.70;;;2.80;;
8652;SDS011;4364;52.426;9.424;2023-03-14T14:47:23;14.43;;;2.63;;
8652;SDS011;4364;52.426;9.424;2023-03-14T14:49:51;13.17;;;2.90;;
8652;SDS011;4364;52.426;9.424;2023-03-14T14:52:20;12.83;;;2.77;;
8652;SDS011;4364;52.426;9.424;2023-03-14T14:55:19;9.40;;;2.20;;
8652;SDS011;4364;52.426;9.424;2023-03-14T14:57:53;10.13;;;2.07;;
8652;SDS011;4364;52.426;9.424;2023-03-14T15:00:23;9.57;;;2.00;;
8652;SDS011;4364;52.426;9.424;2023-03-14T15:02:52;9.50;;;2.00;;
8652;SDS011;4364;52.426;9.424;2023-03-14T15:05:25;8.17;;;1.90;;
8652;SDS011;4364;52.426;9.424;2023-03-14T15:07:53;10.07;;;2.17;;
8652;SDS011;4364;52.426;9.424;2023-03-14T15:10:21;9.20;;;2.10;;
8652;SDS011;4364;52.426;9.424;2023-03-14T15:12:49;8.20;;;2.00;;
8652;SDS011;4364;52.426;9.424;2023-03-14T15:15:16;8.10;;;1.70;;
8652;SDS011;4364;52.426;9.424;2023-03-14T15:17:43;9.20;;;1.80;;
8652;SDS011;4364;52.426;9.424;2023-03-14T15:20:10;10.63;;;2.00;;
8652;SDS011;4364;52.426;9.424;2023-03-14T15:22:39;7.17;;;2.00;;
8652;SDS011;4364;52.426;9.424;2023-03-14T15:25:06;6.53;;;1.80;;
8652;SDS011;4364;52.426;9.424;2023-03-14T15:27:43;10.10;;;2.00;;
8652;SDS011;4364;52.426;9.424;2023-03-14T15:30:13;5.70;;;1.77;;
8652;SDS011;4364;52.426;9.424;2023-03-14T15:32:41;11.27;;;2.27;;
8652;SDS011;4364;52.426;9.424;2023-03-14T15:35:09;9.00;;;1.90;;
8652;SDS011;4364;52.426;9.424;2023-03-14T15:37:35;10.87;;;2.20;;
8652;SDS011;4364;52.426;9.424;2023-03-14T15:40:03;5.17;;;1.60;;
8652;SDS011;4364;52.426;9.424;2023-03-14T15:42:38;8.50;;;2.17;;
8652;SDS011;4364;52.426;9.424;2023-03-14T15:45:04;6.97;;;2.20;;
8652;SDS011;4364;52.426;9.424;2023-03-14T15:47:31;6.07;;;2.13;;
8652;SDS011;4364;52.426;9.424;2023-03-14T15:49:58;12.30;;;2.47;;
8652;SDS011;4364;52.426;9.424;2023-03-14T15:52:25;5.77;;;2.20;;
8652;SDS011;4364;52.426;9.424;2023-03-14T15:54:51;8.90;;;2.20;;
8652;SDS011;4364;52.426;9.424;2023-03-14T15:57:18;8.77;;;1.93;;
8652;SDS011;4364;52.426;9.424;2023-03-14T15:59:44;13.47;;;2.57;;
8652;SDS011;4364;52.426;9.424;2023-03-14T16:02:11;6.17;;;1.80;;
8652;SDS011;4364;52.426;9.424;2023-03-14T16:04:37;7.73;;;2.23;;
8652;SDS011;4364;52.426;9.424;2023-03-14T16:07:04;9.57;;;2.80;;
8652;SDS011;4364;52.426;9.424;2023-03-14T16:09:30;11.03;;;2.60;;
8652;SDS011;4364;52.426;9.424;2023-03-14T16:11:57;6.83;;;1.90;;
8652;SDS011;4364;52.426;9.424;2023-03-14T16:14:24;8.63;;;1.70;;
8652;SDS011;4364;52.426;9.424;2023-03-14T16:16:51;12.03;;;2.37;;
8652;SDS011;4364;52.426;9.424;2023-03-14T16:19:18;7.80;;;1.80;;
8652;SDS011;4364;52.426;9.424;2023-03-14T16:21:44;6.33;;;1.60;;
8652;SDS011;4364;52.426;9.424;2023-03-14T16:24:11;9.60;;;2.30;;
8652;SDS011;4364;52.426;9.424;2023-03-14T16:26:38;9.67;;;3.20;;
8652;SDS011;4364;52.426;9.424;2023-03-14T16:29:04;7.83;;;2.33;;
8652;SDS011;4364;52.426;9.424;2023-03-14T16:31:31;11.90;;;2.43;;
8652;SDS011;4364;52.426;9.424;2023-03-14T16:34:01;9.33;;;1.83;;
8652;SDS011;4364;52.426;9.424;2023-03-14T16:36:29;7.80;;;2.03;;
8652;SDS011;4364;52.426;9.424;2023-03-14T16:38:56;5.57;;;1.73;;
8652;SDS011;4364;52.426;9.424;2023-03-14T16:41:22;7.43;;;2.00;;
8652;SDS011;4364;52.426;9.424;2023-03-14T16:43:48;6.37;;;1.73;;
8652;SDS011;4364;52.426;9.424;2023-03-14T16:46:19;9.90;;;2.40;;
8652;SDS011;4364;52.426;9.424;2023-03-14T16:48:48;10.83;;;2.00;;
8652;SDS011;4364;52.426;9.424;2023-03-14T16:51:14;8.77;;;1.80;;
8652;SDS011;4364;52.426;9.424;2023-03-14T16:53:42;5.90;;;1.90;;
8652;SDS011;4364;52.426;9.424;2023-03-14T16:56:09;8.73;;;2.13;;
8652;SDS011;4364;52.426;9.424;2023-03-14T16:58:36;5.97;;;1.70;;
8652;SDS011;4364;52.426;9.424;2023-03-14T17:01:06;7.97;;;1.80;;